createdAt,value
2022-12-14T00:01:49.036Z,17.70
2022-12-14T00:04:16.649Z,16.95
2022-12-14T00:06:45.845Z,15.35
2022-12-14T00:09:12.672Z,14.88
2022-12-14T00:11:39.550Z,16.02
2022-12-14T00:14:08.455Z,15.40
2022-12-14T00:16:35.459Z,23.55
2022-12-14T00:19:02.376Z,19.60
2022-12-14T00:21:29.172Z,23.42
2022-12-14T00:23:55.995Z,15.93
2022-12-14T00:26:22.746Z,25.02
2022-12-14T00:28:49.384Z,22.00
2022-12-14T00:31:16.154Z,18.77
2022-12-14T00:33:42.895Z,20.58
2022-12-14T00:36:09.547Z,18.92
2022-12-14T00:38:36.239Z,18.55
2022-12-14T00:41:02.920Z,29.40
2022-12-14T00:43:29.627Z,18.48
2022-12-14T00:45:56.425Z,16.85
2022-12-14T00:48:23.170Z,17.17
2022-12-14T00:50:49.924Z,13.93
2022-12-14T00:53:16.636Z,19.08
2022-12-14T00:55:43.351Z,14.95
2022-12-14T00:58:10.016Z,17.17
2022-12-14T01:00:36.782Z,12.52
2022-12-14T01:03:03.548Z,15.93
2022-12-14T01:05:30.245Z,14.13
2022-12-14T01:07:56.957Z,17.20
2022-12-14T01:10:24.192Z,16.35
2022-12-14T01:13:09.824Z,16.55
2022-12-14T01:15:36.843Z,14.13
2022-12-14T01:18:03.656Z,19.35
2022-12-14T01:20:30.993Z,14.55
2022-12-14T01:22:57.689Z,13.98
2022-12-14T01:25:24.514Z,16.98
2022-12-14T01:27:51.269Z,17.38
2022-12-14T01:30:19.482Z,17.88
2022-12-14T01:32:46.577Z,17.13
2022-12-14T01:35:13.338Z,15.75
2022-12-14T01:37:39.988Z,20.02
2022-12-14T01:40:06.746Z,16.10
2022-12-14T01:42:33.400Z,15.82
2022-12-14T01:45:00.174Z,16.50
2022-12-14T01:47:26.863Z,17.73
2022-12-14T01:49:53.664Z,13.20
2022-12-14T01:52:20.413Z,15.48
2022-12-14T01:54:48.952Z,14.27
2022-12-14T01:57:15.811Z,13.77
2022-12-14T01:59:42.593Z,15.77
2022-12-14T02:02:09.447Z,15.88
2022-12-14T02:04:36.261Z,13.82
2022-12-14T02:07:03.347Z,18.67
2022-12-14T02:09:30.124Z,15.38
2022-12-14T02:11:56.822Z,18.27
2022-12-14T02:14:23.566Z,16.38
2022-12-14T02:16:50.359Z,16.55
2022-12-14T02:19:17.034Z,19.23
2022-12-14T02:21:43.823Z,20.00
2022-12-14T02:24:10.534Z,20.08
2022-12-14T02:26:37.222Z,21.33
2022-12-14T02:29:03.994Z,17.98
2022-12-14T02:31:30.688Z,15.73
2022-12-14T02:33:57.512Z,13.18
2022-12-14T02:36:24.259Z,14.77
2022-12-14T02:38:51.119Z,12.70
2022-12-14T02:41:17.815Z,14.55
2022-12-14T02:43:44.579Z,19.27
2022-12-14T02:46:14.182Z,14.63
2022-12-14T02:48:41.130Z,20.35
2022-12-14T02:51:07.908Z,15.80
2022-12-14T02:53:34.661Z,15.82
2022-12-14T02:56:01.716Z,11.20
2022-12-14T02:58:28.490Z,15.70
2022-12-14T03:00:55.330Z,18.33
2022-12-14T03:03:22.219Z,17.60
2022-12-14T03:05:49.035Z,17.35
2022-12-14T03:08:15.822Z,17.95
2022-12-14T03:10:42.682Z,19.00
2022-12-14T03:13:09.378Z,22.17
2022-12-14T03:15:36.849Z,21.23
2022-12-14T03:18:03.588Z,21.42
2022-12-14T03:20:30.325Z,17.70
2022-12-14T03:22:57.034Z,15.82
2022-12-14T03:25:23.831Z,17.60
2022-12-14T03:27:50.551Z,23.35
2022-12-14T03:30:31.643Z,18.38
2022-12-14T03:33:04.089Z,20.35
2022-12-14T03:35:30.944Z,15.52
2022-12-14T03:37:57.743Z,17.00
2022-12-14T03:40:24.470Z,17.33
2022-12-14T03:42:51.432Z,27.17
2022-12-14T03:45:18.168Z,20.95
2022-12-14T03:47:44.945Z,16.00
2022-12-14T03:50:11.699Z,20.33
2022-12-14T03:52:38.508Z,12.23
2022-12-14T03:55:05.228Z,17.40
2022-12-14T03:57:37.395Z,16.92
2022-12-14T04:00:04.896Z,22.80
2022-12-14T04:02:34.029Z,19.15
2022-12-14T04:05:03.311Z,20.58
2022-12-14T04:07:30.138Z,21.38
2022-12-14T04:09:56.952Z,17.08
2022-12-14T04:12:51.053Z,17.15
2022-12-14T04:15:38.040Z,17.48
2022-12-14T04:18:23.153Z,26.02
2022-12-14T04:20:49.990Z,18.42
2022-12-14T04:23:16.773Z,16.85
2022-12-14T04:26:02.491Z,12.85
2022-12-14T04:28:50.767Z,16.50
2022-12-14T04:31:17.885Z,17.15
2022-12-14T04:33:47.869Z,16.02
2022-12-14T04:36:16.372Z,14.82
2022-12-14T04:38:44.386Z,17.65
2022-12-14T04:41:12.326Z,16.77
2022-12-14T04:43:43.872Z,14.27
2022-12-14T04:46:13.371Z,22.08
2022-12-14T04:48:40.043Z,15.30
2022-12-14T04:51:06.723Z,19.20
2022-12-14T04:53:33.485Z,13.95
2022-12-14T04:56:00.240Z,19.92
2022-12-14T04:58:26.976Z,11.68
2022-12-14T05:00:54.101Z,12.90
2022-12-14T05:03:20.886Z,11.60
2022-12-14T05:05:47.530Z,18.88
2022-12-14T05:08:14.243Z,16.35
2022-12-14T05:10:40.959Z,10.50
2022-12-14T05:13:07.606Z,13.70
2022-12-14T05:15:34.316Z,11.63
2022-12-14T05:18:01.157Z,14.52
2022-12-14T05:20:27.936Z,18.58
2022-12-14T05:22:54.608Z,15.02
2022-12-14T05:25:21.377Z,12.73
2022-12-14T05:27:48.091Z,13.52
2022-12-14T05:30:14.811Z,14.40
2022-12-14T05:32:41.519Z,15.13
2022-12-14T05:35:08.812Z,15.38
2022-12-14T05:37:35.445Z,42.30
2022-12-14T05:40:02.194Z,11.50
2022-12-14T05:42:28.928Z,16.20
2022-12-14T05:44:55.815Z,11.98
2022-12-14T05:47:22.552Z,15.43
2022-12-14T05:49:49.414Z,12.32
2022-12-14T05:52:16.271Z,13.60
2022-12-14T05:54:43.024Z,11.88
2022-12-14T05:57:09.697Z,15.82
2022-12-14T05:59:36.487Z,13.48
2022-12-14T06:02:03.518Z,12.20
2022-12-14T06:04:30.285Z,23.27
2022-12-14T06:06:57.066Z,18.73
2022-12-14T06:09:23.775Z,15.93
2022-12-14T06:11:50.521Z,19.33
2022-12-14T06:14:17.343Z,16.80
2022-12-14T06:16:43.994Z,17.88
2022-12-14T06:19:10.642Z,19.25
2022-12-14T06:21:37.403Z,17.40
2022-12-14T06:24:04.084Z,21.92
2022-12-14T06:26:31.004Z,19.42
2022-12-14T06:28:57.852Z,17.90
2022-12-14T06:31:24.575Z,20.15
2022-12-14T06:33:51.778Z,20.30
2022-12-14T06:36:18.962Z,22.67
2022-12-14T06:38:45.657Z,16.42
2022-12-14T06:41:12.321Z,21.75
2022-12-14T06:43:39.002Z,29.23
2022-12-14T06:46:09.847Z,22.65
2022-12-14T06:48:39.838Z,19.75
2022-12-14T06:51:06.636Z,16.70
2022-12-14T06:53:33.284Z,23.85
2022-12-14T06:56:00.110Z,22.08
2022-12-14T06:58:31.017Z,19.10
2022-12-14T07:00:59.257Z,20.02
2022-12-14T07:03:26.632Z,24.58
2022-12-14T07:05:53.704Z,23.27
2022-12-14T07:08:20.766Z,25.45
2022-12-14T07:10:47.507Z,23.50
2022-12-14T07:13:14.283Z,23.65
2022-12-14T07:15:41.046Z,29.50
2022-12-14T07:18:07.708Z,28.35
2022-12-14T07:20:34.385Z,28.60
2022-12-14T07:23:01.084Z,22.60
2022-12-14T07:25:27.797Z,20.38
2022-12-14T07:27:54.480Z,26.45
2022-12-14T07:30:21.437Z,26.25
2022-12-14T07:32:48.095Z,28.10
2022-12-14T07:35:16.672Z,21.50
2022-12-14T07:37:43.748Z,31.42
2022-12-14T07:40:15.875Z,21.27
2022-12-14T07:42:42.613Z,19.23
2022-12-14T07:45:09.281Z,24.13
2022-12-14T07:47:36.011Z,21.30
2022-12-14T07:50:02.747Z,23.60
2022-12-14T07:52:34.180Z,21.42
2022-12-14T07:55:03.857Z,28.50
2022-12-14T07:57:30.668Z,22.60
2022-12-14T07:59:57.802Z,25.45
2022-12-14T08:02:24.650Z,27.60
2022-12-14T08:04:51.526Z,18.05
2022-12-14T08:07:18.935Z,24.40
2022-12-14T08:09:45.586Z,25.65
2022-12-14T08:12:12.336Z,30.20
2022-12-14T08:14:39.106Z,26.73
2022-12-14T08:17:05.796Z,34.00
2022-12-14T08:19:32.515Z,28.10
2022-12-14T08:21:59.156Z,73.88
2022-12-14T08:24:26.053Z,51.08
2022-12-14T08:26:53.362Z,29.23
2022-12-14T08:29:21.517Z,22.60
2022-12-14T08:31:48.665Z,23.35
2022-12-14T08:34:22.353Z,26.83
2022-12-14T08:36:49.562Z,27.13
2022-12-14T08:39:16.801Z,28.88
2022-12-14T08:41:44.047Z,26.70
2022-12-14T08:44:11.298Z,24.00
2022-12-14T08:46:39.655Z,23.60
2022-12-14T08:49:07.047Z,22.17
2022-12-14T08:51:40.385Z,26.30
2022-12-14T08:54:07.696Z,25.15
2022-12-14T08:56:34.941Z,32.30
2022-12-14T08:59:02.178Z,30.88
2022-12-14T09:01:33.270Z,19.35
2022-12-14T09:04:02.727Z,24.27
2022-12-14T09:06:30.164Z,27.33
2022-12-14T09:08:57.710Z,23.17
2022-12-14T09:11:25.817Z,29.27
2022-12-14T09:13:53.105Z,30.83
2022-12-14T09:16:21.153Z,24.38
2022-12-14T09:18:48.604Z,25.83
2022-12-14T09:21:18.363Z,29.23
2022-12-14T09:23:46.082Z,24.15
2022-12-14T09:26:17.086Z,23.58
2022-12-14T09:28:47.353Z,27.65
2022-12-14T09:31:17.047Z,26.95
2022-12-14T09:33:44.348Z,20.48
2022-12-14T09:36:11.533Z,23.40
2022-12-14T09:38:50.656Z,28.10
2022-12-14T09:41:18.997Z,33.03
2022-12-14T09:43:46.228Z,23.63
2022-12-14T09:46:15.890Z,27.95
2022-12-14T09:48:43.612Z,20.88
2022-12-14T09:51:10.895Z,25.33
2022-12-14T09:53:37.809Z,25.17
2022-12-14T09:56:05.129Z,22.88
2022-12-14T09:58:32.805Z,24.10
2022-12-14T10:00:59.916Z,35.70
2022-12-14T10:03:26.870Z,19.40
2022-12-14T10:05:53.978Z,16.27
2022-12-14T10:08:20.638Z,24.92
2022-12-14T10:10:47.387Z,16.98
2022-12-14T10:13:14.056Z,21.48
2022-12-14T10:15:40.754Z,13.68
2022-12-14T10:18:11.221Z,22.15
2022-12-14T10:20:48.437Z,16.25
2022-12-14T10:23:20.955Z,15.83
2022-12-14T10:25:49.427Z,28.65
2022-12-14T10:28:16.098Z,24.02
2022-12-14T10:30:42.736Z,21.17
2022-12-14T10:33:09.733Z,22.40
2022-12-14T10:35:36.615Z,28.45
2022-12-14T10:38:03.373Z,23.73
2022-12-14T10:40:34.082Z,19.20
2022-12-14T10:43:01.191Z,26.70
2022-12-14T10:45:43.318Z,18.00
2022-12-14T10:48:11.108Z,24.42
2022-12-14T10:50:37.786Z,28.48
2022-12-14T10:53:04.482Z,36.20
2022-12-14T10:55:31.315Z,18.40
2022-12-14T10:57:57.960Z,17.42
2022-12-14T11:00:24.709Z,18.10
2022-12-14T11:02:51.536Z,16.42
2022-12-14T11:05:18.255Z,18.45
2022-12-14T11:07:45.994Z,16.95
2022-12-14T11:10:12.663Z,17.70
2022-12-14T11:12:39.365Z,14.50
2022-12-14T11:15:06.678Z,18.50
2022-12-14T11:17:33.462Z,19.85
2022-12-14T11:20:00.252Z,16.92
2022-12-14T11:22:26.992Z,19.13
2022-12-14T11:24:53.704Z,24.38
2022-12-14T11:27:21.139Z,18.88
2022-12-14T11:29:47.888Z,26.92
2022-12-14T11:32:14.542Z,16.33
2022-12-14T11:34:41.356Z,16.52
2022-12-14T11:37:07.996Z,14.77
2022-12-14T11:39:34.865Z,16.27
2022-12-14T11:42:01.962Z,19.98
2022-12-14T11:44:28.595Z,22.42
2022-12-14T11:46:58.361Z,14.20
2022-12-14T11:49:25.070Z,13.73
2022-12-14T11:51:51.775Z,16.55
2022-12-14T11:54:18.420Z,14.35
2022-12-14T11:56:45.105Z,16.20
2022-12-14T11:59:11.859Z,19.63
2022-12-14T12:01:38.567Z,14.10
2022-12-14T12:04:05.304Z,19.10
2022-12-14T12:06:32.007Z,18.70
2022-12-14T12:08:58.744Z,17.48
2022-12-14T12:11:25.602Z,17.33
2022-12-14T12:13:52.325Z,17.80
2022-12-14T12:16:19.884Z,16.27
2022-12-14T12:18:46.954Z,19.27
2022-12-14T12:21:13.686Z,17.13
2022-12-14T12:23:40.548Z,18.20
2022-12-14T12:26:07.296Z,21.27
2022-12-14T12:28:34.182Z,17.20
2022-12-14T12:31:02.308Z,17.77
2022-12-14T12:33:30.510Z,20.13
2022-12-14T12:35:57.234Z,16.50
2022-12-14T12:38:23.914Z,17.02
2022-12-14T12:40:50.558Z,26.75
2022-12-14T12:43:17.439Z,17.27
2022-12-14T12:45:44.131Z,14.40
2022-12-14T12:48:10.754Z,13.20
2022-12-14T12:50:37.451Z,17.95
2022-12-14T12:53:04.591Z,25.75
2022-12-14T12:55:31.385Z,20.77
2022-12-14T12:57:58.034Z,17.65
2022-12-14T13:00:27.907Z,21.27
2022-12-14T13:02:54.847Z,22.95
2022-12-14T13:05:45.860Z,16.75
2022-12-14T13:08:08.474Z,14.05
2022-12-14T13:10:35.216Z,19.50
2022-12-14T13:13:01.853Z,13.40
2022-12-14T13:15:28.750Z,17.08
2022-12-14T13:17:55.539Z,20.45
2022-12-14T13:20:22.188Z,12.60
2022-12-14T13:22:49.631Z,12.32
2022-12-14T13:25:16.388Z,19.30
2022-12-14T13:27:43.030Z,22.08
2022-12-14T13:30:09.690Z,17.35
2022-12-14T13:32:37.617Z,13.32
2022-12-14T13:35:04.694Z,16.58
2022-12-14T13:37:31.426Z,15.45
2022-12-14T13:39:58.174Z,18.90
2022-12-14T13:42:24.917Z,27.92
2022-12-14T13:44:51.681Z,29.02
2022-12-14T13:47:18.577Z,18.73
2022-12-14T13:49:48.320Z,25.40
2022-12-14T13:52:26.181Z,23.00
2022-12-14T13:54:52.964Z,18.55
2022-12-14T13:57:19.708Z,19.58
2022-12-14T13:59:47.643Z,24.15
2022-12-14T14:02:19.643Z,21.23
2022-12-14T14:04:46.667Z,15.63
2022-12-14T14:07:13.807Z,21.98
2022-12-14T14:09:40.467Z,20.73
2022-12-14T14:12:07.204Z,20.40
2022-12-14T14:14:33.914Z,18.42
2022-12-14T14:17:00.679Z,17.23
2022-12-14T14:19:27.530Z,18.55
2022-12-14T14:22:21.609Z,21.08
2022-12-14T14:24:41.134Z,22.15
2022-12-14T14:27:08.251Z,24.63
2022-12-14T14:29:34.962Z,24.17
2022-12-14T14:32:01.815Z,25.85
2022-12-14T14:34:28.538Z,26.20
2022-12-14T14:36:55.197Z,20.25
2022-12-14T14:39:47.029Z,26.85
2022-12-14T14:42:08.436Z,26.85
2022-12-14T14:44:35.499Z,19.08
2022-12-14T14:47:07.510Z,22.20
2022-12-14T14:49:34.847Z,21.67
2022-12-14T14:52:07.281Z,17.73
2022-12-14T14:55:11.052Z,23.15
2022-12-14T14:57:24.965Z,24.85
2022-12-14T14:59:52.076Z,22.92
2022-12-14T15:02:19.241Z,24.38
2022-12-14T15:04:46.339Z,24.02
2022-12-14T15:07:13.602Z,22.52
2022-12-14T15:09:40.819Z,24.33
2022-12-14T15:12:07.970Z,23.98
2022-12-14T15:14:36.122Z,18.77
2022-12-14T15:17:03.030Z,21.75
2022-12-14T15:19:37.156Z,22.38
2022-12-14T15:22:04.317Z,28.33
2022-12-14T15:24:31.575Z,23.70
2022-12-14T15:26:58.681Z,20.75
2022-12-14T15:29:25.753Z,12.55
2022-12-14T15:31:57.616Z,16.27
2022-12-14T15:34:26.976Z,17.67
2022-12-14T15:36:54.649Z,17.17
2022-12-14T15:39:21.853Z,17.60
2022-12-14T15:41:49.235Z,16.00
2022-12-14T15:44:17.165Z,23.10
2022-12-14T15:46:44.521Z,21.63
2022-12-14T15:49:11.853Z,24.02
2022-12-14T15:51:39.404Z,26.13
2022-12-14T15:54:06.752Z,32.15
2022-12-14T15:56:34.086Z,17.67
2022-12-14T15:59:02.137Z,24.58
2022-12-14T16:01:29.356Z,24.70
2022-12-14T16:03:56.614Z,19.00
2022-12-14T16:06:23.673Z,18.55
2022-12-14T16:08:50.985Z,19.58
2022-12-14T16:11:18.237Z,19.08
2022-12-14T16:13:45.237Z,23.83
2022-12-14T16:16:12.484Z,18.30
2022-12-14T16:18:39.815Z,13.20
2022-12-14T16:21:06.902Z,24.35
2022-12-14T16:23:34.454Z,13.98
2022-12-14T16:26:03.628Z,17.23
2022-12-14T16:28:31.575Z,16.85
2022-12-14T16:30:58.706Z,19.92
2022-12-14T16:33:26.521Z,18.23
2022-12-14T16:35:53.822Z,11.23
2022-12-14T16:38:21.048Z,15.38
2022-12-14T16:40:48.742Z,19.45
2022-12-14T16:43:15.980Z,19.13
2022-12-14T16:45:43.255Z,27.73
2022-12-14T16:48:10.669Z,25.63
2022-12-14T16:50:56.707Z,14.77
2022-12-14T16:53:25.655Z,25.92
2022-12-14T16:55:52.981Z,16.65
2022-12-14T16:58:20.433Z,16.80
2022-12-14T17:00:47.864Z,24.42
2022-12-14T17:03:15.183Z,14.60
2022-12-14T17:05:42.506Z,21.42
2022-12-14T17:08:09.828Z,13.85
2022-12-14T17:10:38.560Z,34.05
2022-12-14T17:13:05.961Z,15.10
2022-12-14T17:15:33.244Z,22.10
2022-12-14T17:18:00.512Z,24.27
2022-12-14T17:20:27.931Z,27.05
2022-12-14T17:22:55.457Z,19.17
2022-12-14T17:25:23.036Z,18.52
2022-12-14T17:27:50.330Z,22.38
2022-12-14T17:30:18.138Z,22.73
2022-12-14T17:32:45.673Z,22.27
2022-12-14T17:35:12.805Z,17.60
2022-12-14T17:37:40.051Z,23.35
2022-12-14T17:40:07.919Z,14.82
2022-12-14T17:42:37.720Z,16.00
2022-12-14T17:45:04.870Z,18.40
2022-12-14T17:47:32.038Z,16.90
2022-12-14T17:49:59.181Z,19.10
2022-12-14T17:52:29.194Z,19.63
2022-12-14T17:54:56.321Z,20.98
2022-12-14T17:57:23.541Z,17.27
2022-12-14T18:00:10.663Z,23.92
2022-12-14T18:02:39.122Z,18.20
2022-12-14T18:05:06.654Z,14.13
2022-12-14T18:07:33.844Z,20.88
2022-12-14T18:10:01.153Z,19.38
2022-12-14T18:12:28.291Z,13.48
2022-12-14T18:14:55.954Z,21.23
2022-12-14T18:17:24.907Z,20.73
2022-12-14T18:19:52.219Z,17.38
2022-12-14T18:22:19.735Z,22.65
2022-12-14T18:24:49.307Z,18.30
2022-12-14T18:27:16.736Z,13.52
2022-12-14T18:29:44.101Z,20.98
2022-12-14T18:32:11.605Z,17.73
2022-12-14T18:34:39.162Z,15.30
2022-12-14T18:37:06.312Z,20.95
2022-12-14T18:39:33.459Z,16.13
2022-12-14T18:42:00.631Z,12.18
2022-12-14T18:44:27.802Z,18.70
2022-12-14T18:46:55.434Z,12.98
2022-12-14T18:49:22.696Z,17.92
2022-12-14T18:51:49.815Z,19.40
2022-12-14T18:54:17.054Z,16.17
2022-12-14T18:56:44.060Z,16.95
2022-12-14T18:59:11.174Z,17.73
2022-12-14T19:01:38.390Z,16.35
2022-12-14T19:04:06.396Z,13.57
2022-12-14T19:06:48.960Z,11.52
2022-12-14T19:09:16.242Z,11.55
2022-12-14T19:11:43.428Z,10.60
2022-12-14T19:14:10.465Z,15.65
2022-12-14T19:16:37.605Z,11.02
2022-12-14T19:19:05.023Z,11.10
2022-12-14T19:21:32.008Z,21.10
2022-12-14T19:23:59.999Z,8.50
2022-12-14T19:26:28.772Z,11.77
2022-12-14T19:28:56.021Z,13.80
2022-12-14T19:31:23.208Z,13.35
2022-12-14T19:33:50.608Z,9.30
2022-12-14T19:36:17.772Z,13.25
2022-12-14T19:38:49.124Z,13.30
2022-12-14T19:41:18.110Z,11.57
2022-12-14T19:43:45.360Z,14.80
2022-12-14T19:46:12.540Z,7.75
2022-12-14T19:48:39.762Z,11.60
2022-12-14T19:51:07.309Z,8.82
2022-12-14T19:53:34.678Z,11.55
2022-12-14T19:56:02.085Z,12.02
2022-12-14T19:58:29.281Z,9.35
2022-12-14T20:00:56.414Z,8.10
2022-12-14T20:03:23.800Z,9.77
2022-12-14T20:05:51.388Z,12.65
2022-12-14T20:08:18.636Z,8.05
2022-12-14T20:10:45.959Z,16.23
2022-12-14T20:13:13.302Z,8.18
2022-12-14T20:15:43.114Z,12.43
2022-12-14T20:18:10.611Z,11.32
2022-12-14T20:20:37.842Z,13.43
2022-12-14T20:23:05.083Z,18.98
2022-12-14T20:25:32.511Z,9.43
2022-12-14T20:27:59.677Z,10.32
2022-12-14T20:30:26.922Z,16.35
2022-12-14T20:32:54.039Z,6.97
2022-12-14T20:35:21.104Z,15.57
2022-12-14T20:37:48.189Z,8.95
2022-12-14T20:40:15.442Z,9.50
2022-12-14T20:42:42.634Z,9.80
2022-12-14T20:45:09.632Z,11.68
2022-12-14T20:47:36.717Z,13.60
2022-12-14T20:50:03.932Z,7.55
2022-12-14T20:52:34.084Z,10.20
2022-12-14T20:55:01.074Z,11.57
2022-12-14T20:57:28.624Z,7.10
2022-12-14T20:59:59.113Z,9.60
2022-12-14T21:02:26.529Z,11.23
2022-12-14T21:04:53.578Z,7.85
2022-12-14T21:07:25.824Z,8.55
2022-12-14T21:09:53.500Z,12.40
2022-12-14T21:12:23.633Z,8.05
2022-12-14T21:14:52.380Z,6.78
2022-12-14T21:17:19.676Z,11.25
2022-12-14T21:19:46.789Z,8.82
2022-12-14T21:22:13.865Z,9.77
2022-12-14T21:27:28.139Z,6.10
2022-12-14T21:29:55.348Z,19.23
2022-12-14T21:32:22.312Z,7.15
2022-12-14T21:34:49.337Z,9.68
2022-12-14T21:37:16.533Z,6.47
2022-12-14T21:39:47.581Z,8.68
2022-12-14T21:42:21.132Z,7.85
2022-12-14T21:44:48.189Z,8.05
2022-12-14T21:47:15.331Z,4.95
2022-12-14T21:49:42.528Z,4.88
2022-12-14T21:52:09.451Z,5.75
2022-12-14T21:54:36.425Z,7.78
2022-12-14T21:57:22.295Z,6.45
2022-12-14T21:59:49.339Z,18.45
2022-12-14T22:02:16.473Z,6.90
2022-12-14T22:04:47.092Z,5.38
2022-12-14T22:07:14.103Z,5.68
2022-12-14T22:09:41.107Z,7.50
2022-12-14T22:12:08.193Z,5.18
2022-12-14T22:14:35.072Z,10.43
2022-12-14T22:17:02.299Z,5.63
2022-12-14T22:19:29.387Z,7.93
2022-12-14T22:21:56.429Z,8.52
2022-12-14T22:24:23.589Z,7.63
2022-12-14T22:26:50.739Z,9.07
2022-12-14T22:29:17.793Z,6.93
2022-12-14T22:31:44.962Z,8.85
2022-12-14T22:34:12.609Z,6.20
2022-12-14T22:36:39.849Z,8.55
2022-12-14T22:39:07.157Z,5.90
2022-12-14T22:41:34.260Z,9.75
2022-12-14T22:44:01.420Z,8.73
2022-12-14T22:46:28.636Z,10.07
2022-12-14T22:48:55.862Z,9.77
2022-12-14T22:51:22.890Z,9.95
2022-12-14T22:53:49.996Z,10.07
2022-12-14T22:56:17.220Z,14.30
2022-12-14T22:58:45.078Z,5.47
2022-12-14T23:01:16.698Z,14.68
2022-12-14T23:03:44.357Z,9.25
2022-12-14T23:06:16.019Z,7.45
2022-12-14T23:09:01.693Z,11.35
2022-12-14T23:11:47.124Z,9.57
2022-12-14T23:14:32.498Z,10.38
2022-12-14T23:17:18.051Z,15.23
2022-12-14T23:20:05.100Z,6.82
2022-12-14T23:22:50.895Z,8.80
2022-12-14T23:25:36.371Z,8.00
2022-12-14T23:28:21.891Z,7.07
2022-12-14T23:31:07.526Z,14.45
2022-12-14T23:33:53.293Z,14.60
2022-12-14T23:36:38.958Z,12.02
2022-12-14T23:39:24.393Z,7.10
2022-12-14T23:42:09.850Z,6.20
2022-12-14T23:44:55.195Z,10.73
2022-12-14T23:47:41.000Z,10.05
2022-12-14T23:50:26.255Z,8.35
2022-12-14T23:53:11.856Z,7.30
2022-12-14T23:55:57.335Z,5.15
2022-12-14T23:58:42.687Z,9.20
